• Join FlightAware (Why Join?)
  • Login
  • US Flag 
08:50AM EDT


 

Airport Tracker/Info


-or-


 

Live Flight TrackerFlight Track Log ✈ UAL1493 ✈ 22-Jun-2013 ✈ KEWR - KLAX

Flight Track Log - Related Links

Times and Time Zones

All times are in EDT time to prevent confusion due to time zone crossing. See the UAL1493 flight status page for this flight to view local times or setup timezone preferences in your user account.

Time Position Orientation Groundspeed Altitude Reporting Facility
EDT Latitude Longitude Course Direction KTS MPH feet Rate Location/Type
07:39PM 40.6333 -74.2167 270° West 210 242 2,500  Level New York TRACON
07:40PM 40.6333 -74.3000 270° West 255 293 4,500 2,520 Climbing New York TRACON
07:41PM 40.7368 -74.6140 282° West  Level FlightAware Approximate
07:41PM 40.6500 -74.3833 285° West 256 295 7,600  Level New York TRACON
07:42PM 40.7551 -74.7654 276° West  Level FlightAware Approximate
07:42PM 40.6667 -74.4667 285° West 279 321 9,800  Level New York TRACON
07:43PM 40.7673 -74.9179 303° West  Level FlightAware Approximate
07:44PM 40.7833 -75.0651 270° West  Level FlightAware Approximate
07:44PM 40.7564 -74.5844 315° West 297 342 13,300  Level New York Center
07:45PM 40.7986 -74.6883 298° West 302 348 15,000 1,800 Climbing New York Center
07:46PM 40.7992 -74.8006 270° West 317 365 17,000 1,620 Climbing New York Center
07:47PM 40.8025 -74.9406 272° West 350 403 18,300 960 Climbing New York Center
07:48PM 40.8042 -75.0722 271° West 385 443 19,000 1,020 Climbing New York Center
07:49PM 40.7881 -75.2275 262° West 403 464 20,400 1,440 Climbing New York Center
07:50PM 40.7633 -75.3822 258° West 426 490 21,900 1,380 Climbing New York Center
07:51PM 40.7136 -75.5294 246° West 436 502 23,200 1,200 Climbing New York Center
07:52PM 40.6553 -75.6814 243° Southwest 447 514 24,400 1,140 Climbing New York Center
07:53PM 40.5989 -75.8331 244° Southwest 459 528 25,500 960 Climbing New York Center
07:54PM 40.5358 -75.9894 242° Southwest 472 543 26,400 960 Climbing New York Center
07:55PM 40.4767 -76.1461 244° Southwest 482 555 27,500 1,080 Climbing New York Center
07:56PM 40.4153 -76.3022 243° Southwest 487 560 28,700 1,380 Climbing New York Center
07:57PM 40.3558 -76.4581 243° Southwest 487 560 30,300 1,380 Climbing New York Center
07:58PM 40.2961 -76.6111 243° Southwest 482 555 31,500 960 Climbing New York Center
07:59PM 40.2489 -76.7650 248° West 476 548 32,300 900 Climbing New York Center
08:00PM 40.2131 -76.9331 254° West 476 548 33,400 840 Climbing New York Center
08:01PM 40.1753 -77.0981 253° West 476 548 34,000 300 Climbing New York Center
08:02PM 40.1375 -77.2578 253° West 471 542 34,000  Level New York Center
08:04PM 40.1172 -77.6644 266° West 460 529 34,000  Level Cleveland Center
08:05PM 40.1153 -77.8328 269° West 465 535 34,000  Level Cleveland Center
08:06PM 40.1067 -78.0044 266° West 470 541 34,000  Level Cleveland Center
08:07PM 40.1042 -78.1753 269° West 470 541 34,000  Level Cleveland Center
08:08PM 40.1014 -78.3439 269° West 470 541 34,000  Level Cleveland Center
08:09PM 40.1047 -78.5147 272° West 470 541 34,000  Level Cleveland Center
08:10PM 40.1097 -78.6856 272° West 476 548 34,000  Level Cleveland Center
08:11PM 40.1125 -78.8619 271° West 476 548 34,000  Level Cleveland Center
08:12PM 40.1150 -79.0383 271° West 476 548 34,000  Level Cleveland Center
08:13PM 40.1172 -79.2094 271° West 481 554 34,000  Level Cleveland Center
08:14PM 40.1233 -79.3667 273° West 481 554 34,000  Level Cleveland Center
08:15PM 40.1250 -79.5406 271° West 481 554 34,000  Level Cleveland Center
08:16PM 40.1264 -79.7142 271° West 481 554 34,000  Level Cleveland Center
08:17PM 40.1297 -79.8908 271° West 481 554 34,000  Level Cleveland Center
08:18PM 40.1286 -80.0889 270° West 486 559 34,000  Level Cleveland Center
08:19PM 40.1272 -80.2628 269° West 491 565 34,000  Level Cleveland Center
08:20PM 40.1339 -80.4364 273° West 491 565 34,000  Level Cleveland Center
08:21PM 40.1339 -80.6103 270° West 486 559 34,000  Level Cleveland Center
08:22PM 40.1358 -80.7867 271° West 486 559 34,000  Level Cleveland Center
08:23PM 40.1353 -80.9606 270° West 486 559 34,000  Level Cleveland Center
08:24PM 40.1317 -81.1992 269° West 485 558 34,000  Level Indianapolis Center
08:25PM 40.1317 -81.3783 270° West 487 560 34,000  Level Indianapolis Center
08:26PM 40.1300 -81.5581 269° West 488 562 34,000  Level Indianapolis Center
08:27PM 40.1178 -81.7361 265° West 494 568 34,000 -60 Level Indianapolis Center
08:28PM 40.0761 -81.9186 253° West 488 562 33,900 -60 Descending Indianapolis Center
08:29PM 40.0375 -82.0908 254° West 490 564 33,900  Level Indianapolis Center
08:30PM 39.9989 -82.2617 254° West 490 564 33,900  Level Indianapolis Center
08:31PM 39.9617 -82.4333 254° West 488 562 34,000  Climbing Indianapolis Center
08:32PM 39.9236 -82.6067 254° West 493 567 33,900 -60 Descending Indianapolis Center
08:33PM 39.8875 -82.7806 255° West 493 567 33,900  Level Indianapolis Center
08:35PM 39.8533 -82.9553 256° West 494 568 34,000  Climbing Indianapolis Center
08:36PM 39.8186 -83.1283 255° West 489 563 33,900 -60 Descending Indianapolis Center
08:37PM 39.7842 -83.3039 256° West 493 567 33,900  Level Indianapolis Center
08:38PM 39.7481 -83.4869 256° West 503 579 34,000  Climbing Indianapolis Center
08:39PM 39.7236 -83.6711 260° West 502 578 33,900 -60 Descending Indianapolis Center
08:40PM 39.7044 -83.8511 262° West 497 572 33,900  Level Indianapolis Center
08:41PM 39.6981 -84.0314 267° West 497 572 33,900  Level Indianapolis Center
08:42PM 39.7019 -84.2131 272° West 497 572 34,000  Climbing Indianapolis Center
08:43PM 39.7039 -84.3939 271° West 496 571 33,900 -60 Descending Indianapolis Center
08:44PM 39.7044 -84.5742 270° West 497 572 33,900  Level Indianapolis Center
08:45PM 39.7025 -84.7567 269° West 500 575 34,000 120 Climbing Indianapolis Center
08:46PM 39.6636 -84.9136 252° West 494 568 34,200 540 Climbing Indianapolis Center
08:47PM 39.6153 -85.0792 249° West 493 567 35,200 840 Climbing Indianapolis Center
08:48PM 39.5775 -85.2842 257° West 490 564 36,000 360 Climbing Indianapolis Center
08:49PM 39.5786 -85.4608 271° West 491 565 36,000  Level Indianapolis Center
08:50PM 39.5775 -85.6400 270° West 496 571 36,000  Level Indianapolis Center
08:51PM 39.5778 -85.8164 270° West 492 566 36,000  Level Indianapolis Center
08:52PM 39.5767 -85.9925 270° West 488 562 36,000  Level Indianapolis Center
08:53PM 39.5756 -86.1694 270° West 486 559 36,000  Level Indianapolis Center
08:54PM 39.5747 -86.3486 270° West 487 560 36,000  Level Indianapolis Center
08:55PM 39.5736 -86.5258 270° West 486 559 36,000  Level Indianapolis Center
08:56PM 39.5719 -86.6994 269° West 481 554 36,000  Level Indianapolis Center
08:57PM 39.5694 -86.8742 269° West 484 557 36,000  Level Indianapolis Center
08:58PM 39.5675 -87.0483 269° West 484 557 36,000  Level Indianapolis Center
08:59PM 39.5650 -87.2214 269° West 483 556 36,000  Level Indianapolis Center
09:00PM 39.5619 -87.3944 269° West 482 555 36,000  Level Indianapolis Center
09:01PM 39.5583 -87.5650 268° West 476 548 36,000  Level Indianapolis Center
09:02PM 39.5550 -87.7333 269° West 468 539 36,000  Level Indianapolis Center
09:03PM 39.5511 -87.9008 268° West 466 536 36,000  Level Indianapolis Center
09:04PM 39.5472 -88.0669 268° West 465 535 36,000  Level Indianapolis Center
09:05PM 39.5433 -88.2339 268° West 464 534 36,000  Level Indianapolis Center
09:06PM 39.5392 -88.4072 268° West 467 537 36,000  Level Indianapolis Center
09:07PM 39.5369 -88.5078 268° West 464 534 36,000  Level Kansas City Center
09:08PM 39.5325 -88.6669 268° West 470 541 36,000  Level Kansas City Center
09:09PM 39.5264 -88.8364 267° West 472 543 36,000  Level Kansas City Center
09:10PM 39.5214 -89.0064 268° West 471 542 36,000  Level Kansas City Center
09:11PM 39.5164 -89.1731 268° West 466 536 36,000  Level Kansas City Center
09:12PM 39.5092 -89.3517 267° West 463 533 36,000  Level Kansas City Center
09:13PM 39.5039 -89.5172 268° West 463 533 36,000  Level Kansas City Center
09:14PM 39.4983 -89.6828 268° West 464 534 36,000 240 Level Kansas City Center
09:15PM 39.4906 -89.8822 267° West 465 535 36,500 480 Climbing Kansas City Center
09:16PM 39.4839 -90.0494 267° West 466 536 37,000 240 Climbing Kansas City Center
09:17PM 39.4764 -90.2178 267° West 470 541 37,000  Level Kansas City Center
09:18PM 39.4694 -90.3858 267° West 472 543 37,000  Level Kansas City Center
09:19PM 39.4631 -90.5531 267° West 471 542 37,000  Level Kansas City Center
09:20PM 39.4547 -90.7183 266° West 468 539 37,000  Level Kansas City Center
09:21PM 39.4467 -90.8822 266° West 465 535 37,000  Level Kansas City Center
09:22PM 39.4389 -91.0433 266° West 458 527 37,000  Level Kansas City Center
09:23PM 39.4289 -91.2392 266° West 457 526 37,000  Level Kansas City Center
09:24PM 39.4194 -91.4017 266° West 457 526 37,000  Level Kansas City Center
09:25PM 39.4111 -91.5633 266° West 455 524 37,000  Level Kansas City Center
09:26PM 39.4017 -91.7317 266° West 453 521 37,000  Level Kansas City Center
09:27PM 39.3922 -91.8942 266° West 454 522 37,000  Level Kansas City Center
09:28PM 39.3847 -92.0539 267° West 451 519 37,000  Level Kansas City Center
09:29PM 39.3761 -92.2108 266° West 445 512 37,000  Level Kansas City Center
09:30PM 39.3647 -92.3697 265° West 445 512 37,000  Level Kansas City Center
09:31PM 39.3556 -92.5281 266° West 445 512 37,000  Level Kansas City Center
09:32PM 39.3461 -92.6839 266° West 441 507 37,000  Level Kansas City Center
09:33PM 39.3361 -92.8394 265° West 439 505 37,000  Level Kansas City Center
09:34PM 39.3222 -93.0231 264° West 433 498 37,000  Level Kansas City Center
09:35PM 39.3128 -93.1789 266° West 435 501 37,000  Level Kansas City Center
09:36PM 39.3017 -93.3328 265° West 435 501 37,000  Level Kansas City Center
09:37PM 39.2906 -93.4886 265° West 437 503 37,000  Level Kansas City Center
09:38PM 39.2806 -93.6433 265° West 436 502 37,000  Level Kansas City Center
09:39PM 39.2694 -93.8031 265° West 431 496 37,000 180 Level Kansas City Center
09:40PM 39.2567 -93.9742 265° West 431 496 37,400 480 Climbing Kansas City Center
09:41PM 39.2456 -94.1183 264° West 424 488 38,000 240 Climbing Kansas City Center
09:42PM 39.2344 -94.2650 264° West 426 490 38,000  Level Kansas City Center
09:43PM 39.2211 -94.4325 264° West 423 487 38,000  Level Kansas City Center
09:44PM 39.2089 -94.5739 264° West 416 479 38,000  Level Kansas City Center
09:45PM 39.1981 -94.7178 264° West 420 483 38,000  Level Kansas City Center
09:46PM 39.1839 -94.8858 264° West 424 488 38,000  Level Kansas City Center
09:47PM 39.1722 -95.0294 264° West 418 481 38,000  Level Kansas City Center
09:48PM 39.1578 -95.1928 264° West 422 486 38,000  Level Kansas City Center
09:49PM 39.1453 -95.3392 264° West 415 478 38,000  Level Kansas City Center
09:50PM 39.1325 -95.4878 264° West 412 474 38,000  Level Kansas City Center
09:51PM 39.1203 -95.6272 264° West 410 472 38,000  Level Kansas City Center
09:52PM 39.1061 -95.7906 264° West 411 473 38,000  Level Kansas City Center
09:53PM 39.0931 -95.9317 263° West 414 476 38,000  Level Kansas City Center
09:54PM 39.0800 -96.0719 263° West 414 476 38,000  Level Kansas City Center
09:56PM 39.0639 -96.2358 263° West 413 475 38,000  Level Kansas City Center
09:57PM 39.0506 -96.3761 263° West 412 474 38,000  Level Kansas City Center
09:58PM 39.0372 -96.5161 263° West 412 474 38,000  Level Kansas City Center
09:59PM 39.0203 -96.6789 262° West 412 474 38,000  Level Kansas City Center
10:00PM 39.0064 -96.8169 263° West 408 470 38,000  Level Kansas City Center
10:01PM 38.9914 -96.9775 263° West 407 468 38,000  Level Kansas City Center
10:02PM 38.9800 -97.1008 263° West 411 473 38,000  Level Kansas City Center
10:03PM 38.9617 -97.2744 262° West 410 472 38,000  Level Kansas City Center
10:04PM 38.9469 -97.4181 263° West 406 467 38,000  Level Kansas City Center
10:05PM 38.9325 -97.5550 262° West 406 467 38,000  Level Kansas City Center
10:06PM 38.9161 -97.6933 261° West 408 470 38,000  Level Kansas City Center
10:07PM 38.8975 -97.8508 261° West 413 475 38,000  Level Kansas City Center
10:08PM 38.8800 -97.9986 261° West 419 482 38,000  Level Kansas City Center
10:09PM 38.8611 -98.1433 261° West 414 476 38,000  Level Kansas City Center
10:10PM 38.8433 -98.2894 261° West 416 479 38,000  Level Kansas City Center
10:11PM 38.8242 -98.4347 260° West 415 478 38,000  Level Kansas City Center
10:12PM 38.8069 -98.5797 261° West 413 475 38,000  Level Kansas City Center
10:13PM 38.7867 -98.7250 260° West 415 478 38,000  Level Kansas City Center
10:14PM 38.7636 -98.8986 260° West 413 475 38,000  Level Kansas City Center
10:15PM 38.7444 -99.0442 260° West 416 479 38,000  Level Kansas City Center
10:16PM 38.7267 -99.1908 261° West 417 480 38,000  Level Kansas City Center
10:17PM 38.7069 -99.3381 260° West 420 483 38,000  Level Kansas City Center
10:18PM 38.6856 -99.4836 259° West 419 482 38,000  Level Kansas City Center
10:19PM 38.6661 -99.6339 261° West 421 484 38,000  Level Kansas City Center
10:20PM 38.6383 -99.7964 258° West 421 484 38,000  Level Kansas City Center
10:21PM 38.6122 -99.9353 257° West 421 484 38,000  Level Kansas City Center
10:22PM 38.5858 -100.0722 256° West 417 480 38,000  Level Kansas City Center
10:23PM 38.5567 -100.2289 257° West 411 473 38,000  Level Kansas City Center
10:24PM 38.5303 -100.3650 256° West 412 474 38,000  Level Kansas City Center
10:25PM 38.5006 -100.5225 256° West 411 473 38,000  Level Kansas City Center
10:26PM 38.4744 -100.6556 256° West 408 470 38,000  Level Kansas City Center
10:27PM 38.4528 -100.7628 256° West 403 464 38,000  Level Denver Center
10:28PM 38.4267 -100.8939 256° West 401 461 38,000  Level Denver Center
10:29PM 38.3969 -101.0478 256° West 402 463 38,000  Level Denver Center
10:30PM 38.3708 -101.1811 256° West 405 466 38,000  Level Denver Center
10:31PM 38.3436 -101.3150 256° West 410 472 38,000  Level Denver Center
10:32PM 38.3175 -101.4517 256° West 416 479 38,000  Level Denver Center
10:33PM 38.2844 -101.6103 255° West 416 479 38,000  Level Denver Center
10:34PM 38.2525 -101.7658 255° West 411 473 38,000  Level Denver Center
10:35PM 38.2261 -101.8956 256° West 400 460 38,000  Level Denver Center
10:36PM 38.1992 -102.0272 255° West 402 463 38,000  Level Denver Center
10:37PM 38.1678 -102.1808 255° West 404 465 38,000  Level Denver Center
10:38PM 38.1408 -102.3108 255° West 400 460 38,000  Level Denver Center
10:39PM 38.1083 -102.4619 255° West 400 460 38,000  Level Denver Center
10:40PM 38.0811 -102.5939 255° West 404 465 38,000  Level Denver Center
10:41PM 38.0525 -102.7256 255° West 406 467 38,000  Level Denver Center
10:42PM 38.0211 -102.8756 255° West 405 466 38,000  Level Denver Center
10:43PM 37.9931 -103.0069 255° West 404 465 38,000  Level Denver Center
10:44PM 37.9603 -103.1592 255° West 400 460 38,000  Level Denver Center
10:45PM 37.9319 -103.2883 254° West 399 459 38,000  Level Denver Center
10:46PM 37.8992 -103.4369 254° West 393 452 38,000  Level Denver Center
10:47PM 37.8714 -103.5689 255° West 404 465 38,000  Level Denver Center
10:48PM 37.8414 -103.7028 254° West 412 474 38,000  Level Denver Center
10:49PM 37.8072 -103.8569 254° West 412 474 38,000  Level Denver Center
10:50PM 37.7781 -103.9881 254° West 409 471 38,000  Level Denver Center
10:51PM 37.7442 -104.1392 254° West 406 467 38,000  Level Denver Center
10:52PM 37.7144 -104.2681 254° West 404 465 38,000  Level Denver Center
10:53PM 37.6806 -104.4175 254° West 400 460 38,000  Level Denver Center
10:55PM 37.6503 -104.5464 254° West 402 463 38,000  Level Denver Center
10:56PM 37.6108 -104.7186 254° West 400 460 38,000  Level Denver Center
10:57PM 37.5803 -104.8464 253° West 399 459 38,000  Level Denver Center
10:58PM 37.5506 -104.9750 254° West 400 460 38,000  Level Denver Center
10:59PM 37.5144 -105.1258 253° West 402 463 38,000  Level Denver Center
11:00PM 37.4917 -105.2272 254° West 408 470 38,000  Level Denver Center
11:01PM 37.4486 -105.4017 253° West 409 471 38,000  Level Denver Center
11:02PM 37.4178 -105.5319 253° West 406 467 38,000  Level Denver Center
11:03PM 37.3808 -105.6806 253° West 399 459 38,000  Level Denver Center
11:04PM 37.3492 -105.8083 253° West 400 460 38,000  Level Denver Center
11:05PM 37.3206 -105.9369 254° West 400 460 38,000  Level Denver Center
11:06PM 37.2806 -106.0847 251° West 399 459 38,000  Level Denver Center
11:07PM 37.2486 -106.2111 252° West 398 458 38,000  Level Denver Center
11:08PM 37.2106 -106.3578 252° West 396 456 38,000  Level Denver Center
11:09PM 37.1786 -106.4858 253° West 401 461 38,000  Level Denver Center
11:10PM 37.1450 -106.6156 252° West 408 470 38,000  Level Denver Center
11:11PM 37.1044 -106.7692 252° West 415 478 38,000  Level Denver Center
11:12PM 37.0703 -106.9000 252° West 415 478 38,000  Level Denver Center
11:13PM 37.0358 -107.0286 251° West 408 470 38,000  Level Denver Center
11:14PM 36.9897 -107.1997 251° West 408 470 38,000  Level Denver Center
11:15PM 36.9561 -107.3292 252° West 409 471 38,000  Level Denver Center
11:16PM 36.9172 -107.4739 251° West 395 455 38,000  Level Denver Center
11:17PM 36.8836 -107.5983 251° West 395 455 38,000  Level Denver Center
11:18PM 36.8556 -107.7031 252° West 397 457 38,000  Level Denver Center
11:19PM 36.8106 -107.8711 252° West 399 459 38,000  Level Denver Center
11:20PM 36.7772 -107.9978 252° West 401 461 38,000  Level Denver Center
11:21PM 36.7392 -108.1447 252° West 400 460 38,000  Level Denver Center
11:22PM 36.7156 -108.2781 258° West 410 472 38,000  Level Denver Center
11:23PM 36.6911 -108.4100 257° West 409 471 38,000  Level Denver Center
11:24PM 36.6628 -108.5628 257° West 409 471 38,000  Level Denver Center
11:25PM 36.6378 -108.6947 257° West 410 472 38,000  Level Denver Center
11:26PM 36.6089 -108.8492 257° West 412 474 38,000  Level Denver Center
11:27PM 36.5836 -108.9797 256° West 409 471 38,000  Level Denver Center
11:28PM 36.5583 -109.1125 257° West 414 476 38,000  Level Denver Center
11:29PM 36.5281 -109.2675 256° West 417 480 38,000  Level Denver Center
11:30PM 36.5069 -109.3775 257° West 413 475 38,000  Level Denver Center
11:31PM 36.4767 -109.5311 256° West 411 473 38,000  Level Denver Center
11:32PM 36.4456 -109.6850 256° West 413 475 38,000  Level Denver Center
11:33PM 36.4192 -109.8169 256° West 411 473 38,000  Level Denver Center
11:34PM 36.3892 -109.9697 256° West 408 470 38,000  Level Denver Center
11:36PM 36.3628 -110.0994 256° West 408 470 38,000  Level Denver Center
11:37PM 36.3275 -110.2717 256° West 408 470 38,000  Level Denver Center
11:38PM 36.2989 -110.4111 256° West 414 476 38,000  Level Denver Center
11:39PM 36.2722 -110.5478 256° West 411 473 38,000  Level Denver Center
11:40PM 36.2439 -110.6872 256° West 414 476 38,000  Level Denver Center
11:41PM 36.2139 -110.8278 255° West 420 483 38,000  Level Denver Center
11:42PM 36.1839 -110.9692 255° West 423 487 38,000  Level Denver Center
11:43PM 36.1483 -111.1369 255° West 421 484 38,000  Level Denver Center
11:44PM 36.1189 -111.2747 255° West 417 480 38,000  Level Denver Center
11:45PM 36.0906 -111.4139 256° West 417 480 38,000  Level Denver Center
11:46PM 36.0531 -111.5492 251° West 417 480 38,000  Level Denver Center
11:47PM 36.0092 -111.6825 248° West 418 481 38,000  Level Denver Center
11:48PM 35.9667 -111.8153 248° West 417 480 38,000  Level Denver Center
11:49PM 35.9250 -111.9458 249° West 412 474 38,000  Level Denver Center
11:50PM 35.8825 -112.0761 248° West 410 472 38,000  Level Denver Center
11:51PM 35.8328 -112.2322 249° West 408 470 38,000  Level Denver Center
11:52PM 35.7892 -112.3619 248° West 409 471 38,000  Level Denver Center
11:54PM 35.7311 -112.5383 248° West 413 475 38,000  Level Los Angeles Center
11:55PM 35.6892 -112.6672 248° West 411 473 38,000  Level Los Angeles Center
11:56PM 35.6431 -112.8056 248° West 412 474 38,000  Level Los Angeles Center
11:57PM 35.5994 -112.9350 248° West 410 472 38,000  Level Los Angeles Center
11:58PM 35.5606 -113.0494 247° West 405 466 38,000  Level Los Angeles Center
11:59PM 35.5172 -113.1831 248° West 418 481 38,000  Level Los Angeles Center
12:00AM 35.4675 -113.3297 247° West 407 468 38,000  Level Los Angeles Center
12:01AM 35.4244 -113.4553 247° West 405 466 38,000  Level Los Angeles Center
12:02AM 35.3819 -113.5811 248° West 405 466 38,000  Level Los Angeles Center
12:03AM 35.3383 -113.7072 247° West 404 465 38,000  Level Los Angeles Center
12:04AM 35.2944 -113.8331 247° West 405 466 38,000  Level Los Angeles Center
12:05AM 35.2461 -113.9733 247° West 404 465 38,000  Level Los Angeles Center
12:06AM 35.2028 -114.1000 247° West 404 465 38,000  Level Los Angeles Center
12:07AM 35.1589 -114.2294 248° West 409 471 38,000  Level Los Angeles Center
12:08AM 35.1128 -114.3575 246° West 410 472 38,000  Level Los Angeles Center
12:09AM 35.0686 -114.4858 247° West 409 471 38,000  Level Los Angeles Center
12:10AM 35.0233 -114.6144 247° West 409 471 38,000  Level Los Angeles Center
12:11AM 34.9681 -114.7678 246° West 410 472 38,000  Level Los Angeles Center
12:12AM 34.9236 -114.8939 247° West 406 467 38,000  Level Los Angeles Center
12:13AM 34.8800 -115.0189 247° West 403 464 38,000  Level Los Angeles Center
12:14AM 34.8350 -115.1450 247° West 404 465 38,000  Level Los Angeles Center
12:15AM 34.7897 -115.2706 246° West 405 466 38,000  Level Los Angeles Center
12:16AM 34.7444 -115.3961 246° West 404 465 38,000 -60 Level Los Angeles Center
12:17AM 34.6986 -115.5211 246° West 405 466 37,900 -600 Descending Los Angeles Center
12:18AM 34.6539 -115.6475 247° West 404 465 36,900 -960 Descending Los Angeles Center
12:19AM 34.6078 -115.7733 246° West 407 468 36,000 -960 Descending Los Angeles Center
12:20AM 34.5600 -115.9000 245° Southwest 410 472 35,000 -960 Descending Los Angeles Center
12:21AM 34.5131 -116.0314 247° West 420 483 34,100 -960 Descending Los Angeles Center
12:22AM 34.4636 -116.1639 246° West 429 494 33,100 -960 Descending Los Angeles Center
12:23AM 34.4139 -116.2964 246° West 431 496 32,200 -1,020 Descending Los Angeles Center
12:24AM 34.3633 -116.4314 246° West 439 505 31,100 -1,740 Descending Los Angeles Center
12:25AM 34.3156 -116.5600 246° West 422 486 28,700 -2,340 Descending Los Angeles Center
12:26AM 34.2681 -116.6856 245° Southwest 411 473 26,400 -2,460 Descending Los Angeles Center
12:27AM 34.2144 -116.8286 246° West 392 451 23,800 -2,400 Descending Los Angeles Center
12:28AM 34.1694 -116.9450 245° Southwest 383 441 21,600 -2,160 Descending Los Angeles Center
12:29AM 34.1269 -117.0569 245° Southwest 369 425 19,500 -2,100 Descending Los Angeles Center
12:30AM 34.0833 -117.1500 241° Southwest 351 404 17,800 -2,040 Descending Southern California TRACON
12:31AM 34.0500 -117.2500 248° West 340 391 15,900 -1,860 Descending Southern California TRACON
12:32AM 34.0333 -117.3667 260° West 327 376 14,100 -1,440 Descending Southern California TRACON
12:33AM 34.0333 -117.4667 270° West 294 338 12,900 -1,260 Descending Southern California TRACON
12:34AM 34.0167 -117.5667 259° West 319 367 11,500 -1,500 Descending Southern California TRACON
12:35AM 34.0167 -117.6500 270° West 306 352 10,100 -1,200 Descending Southern California TRACON
12:36AM 34.0000 -117.7500 259° West 277 319 9,200 -1,200 Descending Southern California TRACON
12:37AM 33.9833 -117.8500 259° West 289 333 7,800 -1,320 Descending Southern California TRACON
12:38AM 33.9833 -117.9333 270° West 282 325 6,600 -1,200 Descending Southern California TRACON
12:39AM 33.9667 -118.0500 260° West 265 305 5,400 -960 Descending Southern California TRACON
12:40AM 33.9667 -118.1333 270° West 235 270 4,600 -1,080 Descending Southern California TRACON
12:41AM 33.9500 -118.2000 253° West 199 229 3,300 -1,200 Descending Southern California TRACON
12:42AM 33.9500 -118.2500 270° West 188 216 2,200 -1,080 Descending Southern California TRACON
12:43AM 33.9500 -118.3167 270° West 179 206 1,200 -900 Descending Southern California TRACON
12:44AM 33.9333 -118.3667 248° West 149 171 400 7,620 Descending Southern California TRACON
12:45AM 33.9336 -118.4231 270° West 161 185 19,000 13,920 Climbing Los Angeles Center
12:47AM 33.9333 -118.4000 259° West  Level FlightAware Approximate